sensor_id;sensor_type;location;lat;lon;timestamp;P1;durP1;ratioP1;P2;durP2;ratioP2
23058;SDS011;30585;51.502;7.218;2022-08-01T00:03:17;16.57;;;12.47;;
23058;SDS011;30585;51.502;7.218;2022-08-01T00:05:45;13.52;;;10.43;;
23058;SDS011;30585;51.502;7.218;2022-08-01T00:08:13;16.17;;;11.35;;
23058;SDS011;30585;51.502;7.218;2022-08-01T00:10:42;12.93;;;10.50;;
23058;SDS011;30585;51.502;7.218;2022-08-01T00:13:10;14.00;;;11.43;;
23058;SDS011;30585;51.502;7.218;2022-08-01T00:15:38;13.80;;;10.90;;
23058;SDS011;30585;51.502;7.218;2022-08-01T00:18:17;13.30;;;10.55;;
23058;SDS011;30585;51.502;7.218;2022-08-01T00:20:44;13.30;;;10.13;;
23058;SDS011;30585;51.502;7.218;2022-08-01T00:23:12;13.63;;;11.48;;
23058;SDS011;30585;51.502;7.218;2022-08-01T00:25:40;12.02;;;10.27;;
23058;SDS011;30585;51.502;7.218;2022-08-01T00:28:09;12.23;;;10.68;;
23058;SDS011;30585;51.502;7.218;2022-08-01T00:30:37;12.88;;;10.50;;
23058;SDS011;30585;51.502;7.218;2022-08-01T00:33:05;14.20;;;11.50;;
23058;SDS011;30585;51.502;7.218;2022-08-01T00:35:33;16.20;;;12.10;;
23058;SDS011;30585;51.502;7.218;2022-08-01T00:38:01;16.17;;;13.00;;
23058;SDS011;30585;51.502;7.218;2022-08-01T00:40:29;18.52;;;13.63;;
23058;SDS011;30585;51.502;7.218;2022-08-01T00:42:57;17.33;;;13.88;;
23058;SDS011;30585;51.502;7.218;2022-08-01T00:45:26;18.60;;;14.25;;
23058;SDS011;30585;51.502;7.218;2022-08-01T00:47:54;17.80;;;14.30;;
23058;SDS011;30585;51.502;7.218;2022-08-01T00:50:22;20.92;;;15.68;;
23058;SDS011;30585;51.502;7.218;2022-08-01T00:52:50;22.60;;;14.77;;
23058;SDS011;30585;51.502;7.218;2022-08-01T00:55:18;21.48;;;15.60;;
23058;SDS011;30585;51.502;7.218;2022-08-01T00:57:47;18.83;;;14.00;;
23058;SDS011;30585;51.502;7.218;2022-08-01T01:00:31;19.88;;;14.98;;
23058;SDS011;30585;51.502;7.218;2022-08-01T01:03:20;18.48;;;15.20;;
23058;SDS011;30585;51.502;7.218;2022-08-01T01:06:22;19.75;;;15.38;;
23058;SDS011;30585;51.502;7.218;2022-08-01T01:08:57;18.80;;;15.18;;
23058;SDS011;30585;51.502;7.218;2022-08-01T01:11:31;19.58;;;14.90;;
23058;SDS011;30585;51.502;7.218;2022-08-01T01:14:08;20.58;;;14.77;;
23058;SDS011;30585;51.502;7.218;2022-08-01T01:16:41;20.83;;;15.38;;
23058;SDS011;30585;51.502;7.218;2022-08-01T01:19:13;21.27;;;15.25;;
23058;SDS011;30585;51.502;7.218;2022-08-01T01:21:50;19.27;;;15.70;;
23058;SDS011;30585;51.502;7.218;2022-08-01T01:24:31;18.27;;;14.68;;
23058;SDS011;30585;51.502;7.218;2022-08-01T01:27:18;18.90;;;14.30;;
23058;SDS011;30585;51.502;7.218;2022-08-01T01:29:54;18.25;;;14.80;;
23058;SDS011;30585;51.502;7.218;2022-08-01T01:32:28;29.80;;;14.18;;
23058;SDS011;30585;51.502;7.218;2022-08-01T01:35:02;15.77;;;13.27;;
23058;SDS011;30585;51.502;7.218;2022-08-01T01:37:33;16.85;;;13.15;;
23058;SDS011;30585;51.502;7.218;2022-08-01T01:40:02;22.13;;;14.20;;
23058;SDS011;30585;51.502;7.218;2022-08-01T01:42:32;15.82;;;13.13;;
23058;SDS011;30585;51.502;7.218;2022-08-01T01:45:04;16.75;;;13.02;;
23058;SDS011;30585;51.502;7.218;2022-08-01T01:47:33;16.67;;;13.60;;
23058;SDS011;30585;51.502;7.218;2022-08-01T01:50:04;18.95;;;14.07;;
23058;SDS011;30585;51.502;7.218;2022-08-01T01:52:35;17.98;;;13.90;;
23058;SDS011;30585;51.502;7.218;2022-08-01T01:55:06;18.88;;;14.60;;
23058;SDS011;30585;51.502;7.218;2022-08-01T01:57:36;21.35;;;15.52;;
23058;SDS011;30585;51.502;7.218;2022-08-01T02:00:08;22.38;;;15.70;;
23058;SDS011;30585;51.502;7.218;2022-08-01T02:02:38;18.45;;;15.50;;
23058;SDS011;30585;51.502;7.218;2022-08-01T02:05:09;18.92;;;15.48;;
23058;SDS011;30585;51.502;7.218;2022-08-01T02:07:39;21.45;;;18.13;;
23058;SDS011;30585;51.502;7.218;2022-08-01T02:10:07;19.95;;;15.32;;
23058;SDS011;30585;51.502;7.218;2022-08-01T02:12:38;17.40;;;13.68;;
23058;SDS011;30585;51.502;7.218;2022-08-01T02:15:10;24.95;;;14.07;;
23058;SDS011;30585;51.502;7.218;2022-08-01T02:17:41;19.38;;;13.15;;
23058;SDS011;30585;51.502;7.218;2022-08-01T02:20:11;21.65;;;13.50;;
23058;SDS011;30585;51.502;7.218;2022-08-01T02:22:40;17.63;;;12.65;;
23058;SDS011;30585;51.502;7.218;2022-08-01T02:25:14;17.75;;;12.27;;
23058;SDS011;30585;51.502;7.218;2022-08-01T02:27:45;19.35;;;13.20;;
23058;SDS011;30585;51.502;7.218;2022-08-01T02:30:19;20.52;;;13.75;;
23058;SDS011;30585;51.502;7.218;2022-08-01T02:32:49;26.90;;;17.42;;
23058;SDS011;30585;51.502;7.218;2022-08-01T02:35:20;28.92;;;17.35;;
23058;SDS011;30585;51.502;7.218;2022-08-01T02:37:52;23.10;;;15.65;;
23058;SDS011;30585;51.502;7.218;2022-08-01T02:40:22;24.70;;;17.33;;
23058;SDS011;30585;51.502;7.218;2022-08-01T02:42:51;24.77;;;16.80;;
23058;SDS011;30585;51.502;7.218;2022-08-01T02:45:24;25.35;;;16.95;;
23058;SDS011;30585;51.502;7.218;2022-08-01T02:47:54;23.50;;;16.15;;
23058;SDS011;30585;51.502;7.218;2022-08-01T02:50:26;26.48;;;16.40;;
23058;SDS011;30585;51.502;7.218;2022-08-01T02:52:56;25.30;;;17.88;;
23058;SDS011;30585;51.502;7.218;2022-08-01T02:55:25;25.42;;;15.82;;
23058;SDS011;30585;51.502;7.218;2022-08-01T02:57:54;26.20;;;17.60;;
23058;SDS011;30585;51.502;7.218;2022-08-01T03:00:27;26.38;;;16.08;;
23058;SDS011;30585;51.502;7.218;2022-08-01T03:02:57;24.33;;;17.58;;
23058;SDS011;30585;51.502;7.218;2022-08-01T03:05:27;28.52;;;18.05;;
23058;SDS011;30585;51.502;7.218;2022-08-01T03:07:55;31.33;;;17.83;;
23058;SDS011;30585;51.502;7.218;2022-08-01T03:10:29;26.42;;;17.17;;
23058;SDS011;30585;51.502;7.218;2022-08-01T03:13:00;22.92;;;16.05;;
23058;SDS011;30585;51.502;7.218;2022-08-01T03:15:32;25.67;;;17.17;;
23058;SDS011;30585;51.502;7.218;2022-08-01T03:18:03;28.17;;;17.63;;
23058;SDS011;30585;51.502;7.218;2022-08-01T03:20:34;24.33;;;17.42;;
23058;SDS011;30585;51.502;7.218;2022-08-01T03:23:03;25.98;;;17.75;;
23058;SDS011;30585;51.502;7.218;2022-08-01T03:25:33;22.75;;;16.38;;
23058;SDS011;30585;51.502;7.218;2022-08-01T03:28:04;24.73;;;16.42;;
23058;SDS011;30585;51.502;7.218;2022-08-01T03:30:36;23.98;;;16.25;;
23058;SDS011;30585;51.502;7.218;2022-08-01T03:33:05;25.00;;;19.00;;
23058;SDS011;30585;51.502;7.218;2022-08-01T03:35:34;23.42;;;15.90;;
23058;SDS011;30585;51.502;7.218;2022-08-01T03:38:05;20.52;;;13.82;;
23058;SDS011;30585;51.502;7.218;2022-08-01T03:40:43;20.77;;;15.32;;
23058;SDS011;30585;51.502;7.218;2022-08-01T03:43:17;20.40;;;14.60;;
23058;SDS011;30585;51.502;7.218;2022-08-01T03:45:50;22.05;;;15.05;;
23058;SDS011;30585;51.502;7.218;2022-08-01T03:48:20;21.38;;;14.07;;
23058;SDS011;30585;51.502;7.218;2022-08-01T03:50:55;18.15;;;12.45;;
23058;SDS011;30585;51.502;7.218;2022-08-01T03:53:26;19.60;;;13.73;;
23058;SDS011;30585;51.502;7.218;2022-08-01T03:55:58;17.35;;;13.23;;
23058;SDS011;30585;51.502;7.218;2022-08-01T03:58:27;17.38;;;13.55;;
23058;SDS011;30585;51.502;7.218;2022-08-01T04:00:57;17.88;;;13.07;;
23058;SDS011;30585;51.502;7.218;2022-08-01T04:03:26;16.70;;;13.10;;
23058;SDS011;30585;51.502;7.218;2022-08-01T04:05:55;18.27;;;12.88;;
23058;SDS011;30585;51.502;7.218;2022-08-01T04:08:29;19.92;;;14.13;;
23058;SDS011;30585;51.502;7.218;2022-08-01T04:11:01;19.77;;;13.10;;
23058;SDS011;30585;51.502;7.218;2022-08-01T04:13:29;18.83;;;13.88;;
23058;SDS011;30585;51.502;7.218;2022-08-01T04:16:05;22.60;;;15.88;;
23058;SDS011;30585;51.502;7.218;2022-08-01T04:18:33;20.15;;;13.93;;
23058;SDS011;30585;51.502;7.218;2022-08-01T04:21:00;18.70;;;13.98;;
23058;SDS011;30585;51.502;7.218;2022-08-01T04:23:28;21.00;;;13.63;;
23058;SDS011;30585;51.502;7.218;2022-08-01T04:26:01;17.05;;;12.45;;
23058;SDS011;30585;51.502;7.218;2022-08-01T04:28:31;21.00;;;12.98;;
23058;SDS011;30585;51.502;7.218;2022-08-01T04:31:02;20.90;;;13.77;;
23058;SDS011;30585;51.502;7.218;2022-08-01T04:33:35;16.42;;;13.07;;
23058;SDS011;30585;51.502;7.218;2022-08-01T04:36:07;19.38;;;11.98;;
23058;SDS011;30585;51.502;7.218;2022-08-01T04:38:38;21.50;;;14.32;;
23058;SDS011;30585;51.502;7.218;2022-08-01T04:41:09;23.45;;;15.35;;
23058;SDS011;30585;51.502;7.218;2022-08-01T04:43:40;18.02;;;13.50;;
23058;SDS011;30585;51.502;7.218;2022-08-01T04:46:11;21.38;;;14.10;;
23058;SDS011;30585;51.502;7.218;2022-08-01T04:48:40;19.98;;;13.48;;
23058;SDS011;30585;51.502;7.218;2022-08-01T04:51:12;22.23;;;12.73;;
23058;SDS011;30585;51.502;7.218;2022-08-01T04:53:41;17.30;;;12.05;;
23058;SDS011;30585;51.502;7.218;2022-08-01T04:56:10;16.40;;;10.07;;
23058;SDS011;30585;51.502;7.218;2022-08-01T04:58:39;16.15;;;10.80;;
23058;SDS011;30585;51.502;7.218;2022-08-01T05:01:08;14.80;;;10.75;;
23058;SDS011;30585;51.502;7.218;2022-08-01T05:03:38;17.30;;;11.10;;
23058;SDS011;30585;51.502;7.218;2022-08-01T05:06:05;15.63;;;10.38;;
23058;SDS011;30585;51.502;7.218;2022-08-01T05:08:33;15.20;;;11.02;;
23058;SDS011;30585;51.502;7.218;2022-08-01T05:11:02;14.35;;;10.65;;
23058;SDS011;30585;51.502;7.218;2022-08-01T05:13:30;13.35;;;9.80;;
23058;SDS011;30585;51.502;7.218;2022-08-01T05:15:58;14.65;;;10.32;;
23058;SDS011;30585;51.502;7.218;2022-08-01T05:18:26;14.85;;;9.60;;
23058;SDS011;30585;51.502;7.218;2022-08-01T05:20:57;16.00;;;11.15;;
23058;SDS011;30585;51.502;7.218;2022-08-01T05:23:25;16.13;;;10.93;;
23058;SDS011;30585;51.502;7.218;2022-08-01T05:26:08;15.18;;;10.52;;
23058;SDS011;30585;51.502;7.218;2022-08-01T05:28:39;12.57;;;8.90;;
23058;SDS011;30585;51.502;7.218;2022-08-01T05:31:06;13.07;;;9.45;;
23058;SDS011;30585;51.502;7.218;2022-08-01T05:33:34;14.15;;;10.15;;
23058;SDS011;30585;51.502;7.218;2022-08-01T05:36:04;11.88;;;8.07;;
23058;SDS011;30585;51.502;7.218;2022-08-01T05:38:32;12.20;;;8.57;;
23058;SDS011;30585;51.502;7.218;2022-08-01T05:41:00;14.18;;;9.13;;
23058;SDS011;30585;51.502;7.218;2022-08-01T05:43:28;12.30;;;8.68;;
23058;SDS011;30585;51.502;7.218;2022-08-01T05:45:55;14.20;;;9.80;;
23058;SDS011;30585;51.502;7.218;2022-08-01T05:48:24;13.98;;;9.48;;
23058;SDS011;30585;51.502;7.218;2022-08-01T05:50:52;12.85;;;8.93;;
23058;SDS011;30585;51.502;7.218;2022-08-01T05:53:25;14.52;;;8.88;;
23058;SDS011;30585;51.502;7.218;2022-08-01T05:55:53;12.13;;;8.07;;
23058;SDS011;30585;51.502;7.218;2022-08-01T05:58:21;14.85;;;9.23;;
23058;SDS011;30585;51.502;7.218;2022-08-01T06:00:50;13.55;;;8.60;;
23058;SDS011;30585;51.502;7.218;2022-08-01T06:03:18;13.05;;;8.88;;
23058;SDS011;30585;51.502;7.218;2022-08-01T06:05:46;13.50;;;8.82;;
23058;SDS011;30585;51.502;7.218;2022-08-01T06:08:14;12.38;;;8.60;;
23058;SDS011;30585;51.502;7.218;2022-08-01T06:10:43;13.68;;;9.30;;
23058;SDS011;30585;51.502;7.218;2022-08-01T06:13:11;14.15;;;9.32;;
23058;SDS011;30585;51.502;7.218;2022-08-01T06:15:39;15.82;;;9.65;;
23058;SDS011;30585;51.502;7.218;2022-08-01T06:18:07;14.48;;;9.05;;
23058;SDS011;30585;51.502;7.218;2022-08-01T06:20:35;14.25;;;9.18;;
23058;SDS011;30585;51.502;7.218;2022-08-01T06:23:03;12.98;;;9.23;;
23058;SDS011;30585;51.502;7.218;2022-08-01T06:25:53;14.75;;;10.90;;
23058;SDS011;30585;51.502;7.218;2022-08-01T06:28:21;13.60;;;9.82;;
23058;SDS011;30585;51.502;7.218;2022-08-01T06:30:49;15.70;;;9.57;;
23058;SDS011;30585;51.502;7.218;2022-08-01T06:33:17;13.50;;;8.00;;
23058;SDS011;30585;51.502;7.218;2022-08-01T06:35:45;12.00;;;8.18;;
23058;SDS011;30585;51.502;7.218;2022-08-01T06:38:12;13.10;;;8.75;;
23058;SDS011;30585;51.502;7.218;2022-08-01T06:40:40;15.00;;;8.10;;
23058;SDS011;30585;51.502;7.218;2022-08-01T06:43:09;13.23;;;8.10;;
23058;SDS011;30585;51.502;7.218;2022-08-01T06:45:38;11.07;;;8.30;;
23058;SDS011;30585;51.502;7.218;2022-08-01T06:48:06;12.45;;;8.43;;
23058;SDS011;30585;51.502;7.218;2022-08-01T06:50:34;13.93;;;8.52;;
23058;SDS011;30585;51.502;7.218;2022-08-01T06:53:03;14.38;;;9.73;;
23058;SDS011;30585;51.502;7.218;2022-08-01T06:55:31;18.70;;;9.70;;
23058;SDS011;30585;51.502;7.218;2022-08-01T06:57:59;15.73;;;10.40;;
23058;SDS011;30585;51.502;7.218;2022-08-01T07:00:28;12.68;;;9.13;;
23058;SDS011;30585;51.502;7.218;2022-08-01T07:02:56;14.18;;;9.10;;
23058;SDS011;30585;51.502;7.218;2022-08-01T07:05:26;11.68;;;7.95;;
23058;SDS011;30585;51.502;7.218;2022-08-01T07:07:54;11.32;;;8.23;;
23058;SDS011;30585;51.502;7.218;2022-08-01T07:10:22;14.23;;;9.70;;
23058;SDS011;30585;51.502;7.218;2022-08-01T07:12:50;13.32;;;9.27;;
23058;SDS011;30585;51.502;7.218;2022-08-01T07:15:17;12.73;;;8.98;;
23058;SDS011;30585;51.502;7.218;2022-08-01T07:17:49;12.00;;;8.48;;
23058;SDS011;30585;51.502;7.218;2022-08-01T07:20:17;12.82;;;9.13;;
23058;SDS011;30585;51.502;7.218;2022-08-01T07:22:45;11.77;;;7.38;;
23058;SDS011;30585;51.502;7.218;2022-08-01T07:25:13;8.38;;;6.60;;
23058;SDS011;30585;51.502;7.218;2022-08-01T07:27:41;8.43;;;6.07;;
23058;SDS011;30585;51.502;7.218;2022-08-01T07:30:09;8.27;;;6.20;;
23058;SDS011;30585;51.502;7.218;2022-08-01T07:32:38;7.45;;;5.68;;
23058;SDS011;30585;51.502;7.218;2022-08-01T07:35:07;7.80;;;5.20;;
23058;SDS011;30585;51.502;7.218;2022-08-01T07:37:36;7.93;;;4.93;;
23058;SDS011;30585;51.502;7.218;2022-08-01T07:40:14;5.05;;;3.83;;
23058;SDS011;30585;51.502;7.218;2022-08-01T07:42:43;4.75;;;3.50;;
23058;SDS011;30585;51.502;7.218;2022-08-01T07:45:11;4.70;;;3.58;;
23058;SDS011;30585;51.502;7.218;2022-08-01T07:47:40;4.75;;;3.47;;
23058;SDS011;30585;51.502;7.218;2022-08-01T07:50:09;3.63;;;2.70;;
23058;SDS011;30585;51.502;7.218;2022-08-01T07:52:39;4.03;;;3.17;;
23058;SDS011;30585;51.502;7.218;2022-08-01T07:55:07;3.97;;;3.05;;
23058;SDS011;30585;51.502;7.218;2022-08-01T07:57:36;3.58;;;3.20;;
23058;SDS011;30585;51.502;7.218;2022-08-01T08:00:05;7.28;;;3.88;;
23058;SDS011;30585;51.502;7.218;2022-08-01T08:02:35;4.85;;;3.75;;
23058;SDS011;30585;51.502;7.218;2022-08-01T08:05:03;5.10;;;3.97;;
23058;SDS011;30585;51.502;7.218;2022-08-01T08:07:34;4.47;;;3.40;;
23058;SDS011;30585;51.502;7.218;2022-08-01T08:10:02;4.90;;;3.90;;
23058;SDS011;30585;51.502;7.218;2022-08-01T08:12:31;3.90;;;3.40;;
23058;SDS011;30585;51.502;7.218;2022-08-01T08:14:59;3.63;;;2.72;;
23058;SDS011;30585;51.502;7.218;2022-08-01T08:17:27;5.18;;;3.13;;
23058;SDS011;30585;51.502;7.218;2022-08-01T08:20:01;4.82;;;2.60;;
23058;SDS011;30585;51.502;7.218;2022-08-01T08:22:36;4.07;;;2.25;;
23058;SDS011;30585;51.502;7.218;2022-08-01T08:25:04;2.67;;;2.15;;
23058;SDS011;30585;51.502;7.218;2022-08-01T08:27:33;1.85;;;1.63;;
23058;SDS011;30585;51.502;7.218;2022-08-01T08:30:03;3.20;;;1.70;;
23058;SDS011;30585;51.502;7.218;2022-08-01T08:32:33;3.20;;;1.75;;
23058;SDS011;30585;51.502;7.218;2022-08-01T08:35:01;2.90;;;1.80;;
23058;SDS011;30585;51.502;7.218;2022-08-01T08:37:30;2.20;;;1.60;;
23058;SDS011;30585;51.502;7.218;2022-08-01T08:40:10;2.53;;;1.80;;
23058;SDS011;30585;51.502;7.218;2022-08-01T08:42:39;3.38;;;1.90;;
23058;SDS011;30585;51.502;7.218;2022-08-01T08:45:08;2.55;;;1.73;;
23058;SDS011;30585;51.502;7.218;2022-08-01T08:47:37;1.65;;;1.50;;
23058;SDS011;30585;51.502;7.218;2022-08-01T08:50:07;2.95;;;1.70;;
23058;SDS011;30585;51.502;7.218;2022-08-01T08:52:35;4.00;;;2.28;;
23058;SDS011;30585;51.502;7.218;2022-08-01T08:55:06;4.15;;;2.80;;
23058;SDS011;30585;51.502;7.218;2022-08-01T08:57:39;3.22;;;1.73;;
23058;SDS011;30585;51.502;7.218;2022-08-01T09:00:08;2.00;;;1.48;;
23058;SDS011;30585;51.502;7.218;2022-08-01T09:02:40;5.22;;;3.60;;
23058;SDS011;30585;51.502;7.218;2022-08-01T09:05:08;4.43;;;2.72;;
23058;SDS011;30585;51.502;7.218;2022-08-01T09:07:44;2.50;;;1.92;;
23058;SDS011;30585;51.502;7.218;2022-08-01T09:10:12;2.85;;;1.80;;
23058;SDS011;30585;51.502;7.218;2022-08-01T09:12:54;2.72;;;2.10;;
23058;SDS011;30585;51.502;7.218;2022-08-01T09:15:37;2.05;;;1.70;;
23058;SDS011;30585;51.502;7.218;2022-08-01T09:18:06;1.92;;;1.70;;
23058;SDS011;30585;51.502;7.218;2022-08-01T09:20:34;2.00;;;1.80;;
23058;SDS011;30585;51.502;7.218;2022-08-01T09:23:02;3.47;;;1.60;;
23058;SDS011;30585;51.502;7.218;2022-08-01T09:25:30;1.80;;;1.52;;
23058;SDS011;30585;51.502;7.218;2022-08-01T09:28:26;5.03;;;1.45;;
23058;SDS011;30585;51.502;7.218;2022-08-01T09:30:55;1.50;;;1.30;;
23058;SDS011;30585;51.502;7.218;2022-08-01T09:33:23;1.55;;;1.40;;
23058;SDS011;30585;51.502;7.218;2022-08-01T09:35:54;2.65;;;1.48;;
23058;SDS011;30585;51.502;7.218;2022-08-01T09:38:24;1.73;;;1.50;;
23058;SDS011;30585;51.502;7.218;2022-08-01T09:40:54;2.47;;;1.55;;
23058;SDS011;30585;51.502;7.218;2022-08-01T09:43:26;2.10;;;1.42;;
23058;SDS011;30585;51.502;7.218;2022-08-01T09:45:57;1.67;;;1.58;;
23058;SDS011;30585;51.502;7.218;2022-08-01T09:48:25;1.70;;;1.58;;
23058;SDS011;30585;51.502;7.218;2022-08-01T09:50:56;1.20;;;1.10;;
23058;SDS011;30585;51.502;7.218;2022-08-01T09:53:43;3.38;;;1.33;;
23058;SDS011;30585;51.502;7.218;2022-08-01T09:56:17;1.25;;;1.15;;
23058;SDS011;30585;51.502;7.218;2022-08-01T09:58:50;1.20;;;0.80;;
23058;SDS011;30585;51.502;7.218;2022-08-01T10:01:25;1.38;;;0.80;;
23058;SDS011;30585;51.502;7.218;2022-08-01T10:04:09;1.13;;;0.90;;
23058;SDS011;30585;51.502;7.218;2022-08-01T10:06:41;0.95;;;0.85;;
23058;SDS011;30585;51.502;7.218;2022-08-01T10:09:11;0.85;;;0.63;;
23058;SDS011;30585;51.502;7.218;2022-08-01T10:11:40;1.20;;;1.10;;
23058;SDS011;30585;51.502;7.218;2022-08-01T10:14:12;1.65;;;1.20;;
23058;SDS011;30585;51.502;7.218;2022-08-01T10:16:43;1.30;;;1.10;;
23058;SDS011;30585;51.502;7.218;2022-08-01T10:19:20;1.58;;;0.95;;
23058;SDS011;30585;51.502;7.218;2022-08-01T10:21:49;1.50;;;1.20;;
23058;SDS011;30585;51.502;7.218;2022-08-01T10:24:24;0.93;;;0.88;;
23058;SDS011;30585;51.502;7.218;2022-08-01T10:26:55;1.17;;;1.00;;
23058;SDS011;30585;51.502;7.218;2022-08-01T10:29:36;1.92;;;1.02;;
23058;SDS011;30585;51.502;7.218;2022-08-01T10:32:12;0.95;;;0.90;;
23058;SDS011;30585;51.502;7.218;2022-08-01T10:34:40;0.90;;;0.85;;
23058;SDS011;30585;51.502;7.218;2022-08-01T10:37:10;1.50;;;1.10;;
23058;SDS011;30585;51.502;7.218;2022-08-01T10:39:41;3.65;;;0.80;;
23058;SDS011;30585;51.502;7.218;2022-08-01T10:42:09;1.23;;;0.70;;
23058;SDS011;30585;51.502;7.218;2022-08-01T10:44:42;1.77;;;0.90;;
23058;SDS011;30585;51.502;7.218;2022-08-01T10:47:15;4.40;;;0.85;;
23058;SDS011;30585;51.502;7.218;2022-08-01T10:49:53;0.80;;;0.80;;
23058;SDS011;30585;51.502;7.218;2022-08-01T10:52:28;0.90;;;0.65;;
23058;SDS011;30585;51.502;7.218;2022-08-01T10:55:01;0.73;;;0.60;;
23058;SDS011;30585;51.502;7.218;2022-08-01T10:57:40;0.65;;;0.63;;
23058;SDS011;30585;51.502;7.218;2022-08-01T11:00:20;0.75;;;0.50;;
23058;SDS011;30585;51.502;7.218;2022-08-01T11:02:57;0.75;;;0.70;;
23058;SDS011;30585;51.502;7.218;2022-08-01T11:05:28;1.10;;;1.00;;
23058;SDS011;30585;51.502;7.218;2022-08-01T11:08:00;0.70;;;0.70;;
23058;SDS011;30585;51.502;7.218;2022-08-01T11:10:32;0.90;;;0.50;;
23058;SDS011;30585;51.502;7.218;2022-08-01T11:13:05;0.55;;;0.55;;
23058;SDS011;30585;51.502;7.218;2022-08-01T11:15:36;1.58;;;0.63;;
23058;SDS011;30585;51.502;7.218;2022-08-01T11:18:28;0.57;;;0.52;;
23058;SDS011;30585;51.502;7.218;2022-08-01T11:20:58;0.40;;;0.40;;
23058;SDS011;30585;51.502;7.218;2022-08-01T11:23:47;0.60;;;0.55;;
23058;SDS011;30585;51.502;7.218;2022-08-01T11:26:18;0.57;;;0.50;;
23058;SDS011;30585;51.502;7.218;2022-08-01T11:29:15;1.02;;;0.50;;
23058;SDS011;30585;51.502;7.218;2022-08-01T11:31:48;0.98;;;0.73;;
23058;SDS011;30585;51.502;7.218;2022-08-01T11:34:18;1.05;;;0.73;;
23058;SDS011;30585;51.502;7.218;2022-08-01T11:36:46;0.60;;;0.60;;
23058;SDS011;30585;51.502;7.218;2022-08-01T11:39:24;0.70;;;0.70;;
23058;SDS011;30585;51.502;7.218;2022-08-01T11:41:52;1.20;;;0.60;;
23058;SDS011;30585;51.502;7.218;2022-08-01T11:44:22;0.63;;;0.50;;
23058;SDS011;30585;51.502;7.218;2022-08-01T11:47:01;2.22;;;0.50;;
23058;SDS011;30585;51.502;7.218;2022-08-01T11:49:45;0.40;;;0.32;;
23058;SDS011;30585;51.502;7.218;2022-08-01T11:52:17;0.50;;;0.50;;
23058;SDS011;30585;51.502;7.218;2022-08-01T11:54:48;0.55;;;0.55;;
23058;SDS011;30585;51.502;7.218;2022-08-01T11:57:17;0.30;;;0.30;;
23058;SDS011;30585;51.502;7.218;2022-08-01T11:59:50;0.57;;;0.50;;
23058;SDS011;30585;51.502;7.218;2022-08-01T12:02:31;0.95;;;0.60;;
23058;SDS011;30585;51.502;7.218;2022-08-01T12:05:01;1.13;;;0.60;;
23058;SDS011;30585;51.502;7.218;2022-08-01T12:07:34;0.50;;;0.50;;
23058;SDS011;30585;51.502;7.218;2022-08-01T12:10:04;0.90;;;0.50;;
23058;SDS011;30585;51.502;7.218;2022-08-01T12:12:33;0.40;;;0.38;;
23058;SDS011;30585;51.502;7.218;2022-08-01T12:15:03;0.73;;;0.63;;
23058;SDS011;30585;51.502;7.218;2022-08-01T12:17:38;0.68;;;0.68;;
23058;SDS011;30585;51.502;7.218;2022-08-01T12:20:23;0.68;;;0.68;;
23058;SDS011;30585;51.502;7.218;2022-08-01T12:22:55;0.63;;;0.60;;
23058;SDS011;30585;51.502;7.218;2022-08-01T12:25:24;1.17;;;0.70;;
23058;SDS011;30585;51.502;7.218;2022-08-01T12:27:52;0.50;;;0.50;;
23058;SDS011;30585;51.502;7.218;2022-08-01T12:30:22;0.52;;;0.52;;
23058;SDS011;30585;51.502;7.218;2022-08-01T12:32:53;1.23;;;0.60;;
23058;SDS011;30585;51.502;7.218;2022-08-01T12:35:22;0.90;;;0.63;;
23058;SDS011;30585;51.502;7.218;2022-08-01T12:37:52;0.90;;;0.40;;
23058;SDS011;30585;51.502;7.218;2022-08-01T12:40:22;0.77;;;0.60;;
23058;SDS011;30585;51.502;7.218;2022-08-01T12:42:51;1.67;;;0.65;;
23058;SDS011;30585;51.502;7.218;2022-08-01T12:45:21;0.52;;;0.50;;
23058;SDS011;30585;51.502;7.218;2022-08-01T12:47:53;0.47;;;0.47;;
23058;SDS011;30585;51.502;7.218;2022-08-01T12:50:22;0.63;;;0.60;;
23058;SDS011;30585;51.502;7.218;2022-08-01T12:52:51;0.98;;;0.70;;
23058;SDS011;30585;51.502;7.218;2022-08-01T12:55:20;0.90;;;0.60;;
23058;SDS011;30585;51.502;7.218;2022-08-01T12:58:03;0.68;;;0.60;;
23058;SDS011;30585;51.502;7.218;2022-08-01T13:00:32;0.68;;;0.68;;
23058;SDS011;30585;51.502;7.218;2022-08-01T13:03:03;0.55;;;0.50;;
23058;SDS011;30585;51.502;7.218;2022-08-01T13:05:43;0.70;;;0.55;;
23058;SDS011;30585;51.502;7.218;2022-08-01T13:08:13;0.50;;;0.50;;
23058;SDS011;30585;51.502;7.218;2022-08-01T13:10:42;0.60;;;0.60;;
23058;SDS011;30585;51.502;7.218;2022-08-01T13:13:11;0.40;;;0.40;;
23058;SDS011;30585;51.502;7.218;2022-08-01T13:16:02;0.60;;;0.60;;
23058;SDS011;30585;51.502;7.218;2022-08-01T13:18:35;0.50;;;0.50;;
23058;SDS011;30585;51.502;7.218;2022-08-01T13:21:07;0.80;;;0.50;;
23058;SDS011;30585;51.502;7.218;2022-08-01T13:23:37;1.25;;;0.63;;
23058;SDS011;30585;51.502;7.218;2022-08-01T13:26:37;0.68;;;0.50;;
23058;SDS011;30585;51.502;7.218;2022-08-01T13:29:05;0.80;;;0.80;;
23058;SDS011;30585;51.502;7.218;2022-08-01T13:31:34;1.08;;;0.90;;
23058;SDS011;30585;51.502;7.218;2022-08-01T13:34:04;1.05;;;0.90;;
23058;SDS011;30585;51.502;7.218;2022-08-01T13:36:33;1.15;;;0.90;;
23058;SDS011;30585;51.502;7.218;2022-08-01T13:39:01;1.55;;;0.80;;
23058;SDS011;30585;51.502;7.218;2022-08-01T13:41:47;0.93;;;0.80;;
23058;SDS011;30585;51.502;7.218;2022-08-01T13:44:15;1.00;;;0.90;;
23058;SDS011;30585;51.502;7.218;2022-08-01T13:46:43;1.10;;;1.00;;
23058;SDS011;30585;51.502;7.218;2022-08-01T13:49:17;1.60;;;0.90;;
23058;SDS011;30585;51.502;7.218;2022-08-01T13:51:48;0.93;;;0.90;;
23058;SDS011;30585;51.502;7.218;2022-08-01T13:54:16;1.05;;;0.90;;
23058;SDS011;30585;51.502;7.218;2022-08-01T13:56:44;1.20;;;1.00;;
23058;SDS011;30585;51.502;7.218;2022-08-01T13:59:12;2.55;;;1.02;;
23058;SDS011;30585;51.502;7.218;2022-08-01T14:01:40;1.00;;;0.77;;
23058;SDS011;30585;51.502;7.218;2022-08-01T14:04:08;0.70;;;0.70;;
23058;SDS011;30585;51.502;7.218;2022-08-01T14:06:38;1.17;;;0.90;;
23058;SDS011;30585;51.502;7.218;2022-08-01T14:09:07;1.00;;;1.00;;
23058;SDS011;30585;51.502;7.218;2022-08-01T14:11:43;0.93;;;0.90;;
23058;SDS011;30585;51.502;7.218;2022-08-01T14:14:11;1.95;;;1.00;;
23058;SDS011;30585;51.502;7.218;2022-08-01T14:16:39;0.98;;;0.90;;
23058;SDS011;30585;51.502;7.218;2022-08-01T14:19:07;1.17;;;0.75;;
23058;SDS011;30585;51.502;7.218;2022-08-01T14:21:35;1.88;;;1.10;;
23058;SDS011;30585;51.502;7.218;2022-08-01T14:24:04;1.83;;;0.90;;
23058;SDS011;30585;51.502;7.218;2022-08-01T14:26:32;0.90;;;0.90;;
23058;SDS011;30585;51.502;7.218;2022-08-01T14:29:01;0.70;;;0.70;;
23058;SDS011;30585;51.502;7.218;2022-08-01T14:31:29;1.13;;;0.90;;
23058;SDS011;30585;51.502;7.218;2022-08-01T14:33:59;1.88;;;0.90;;
23058;SDS011;30585;51.502;7.218;2022-08-01T14:36:27;3.33;;;1.08;;
23058;SDS011;30585;51.502;7.218;2022-08-01T14:39:05;1.70;;;1.20;;
23058;SDS011;30585;51.502;7.218;2022-08-01T14:41:40;1.10;;;1.00;;
23058;SDS011;30585;51.502;7.218;2022-08-01T14:44:07;1.38;;;1.00;;
23058;SDS011;30585;51.502;7.218;2022-08-01T14:46:36;1.15;;;1.05;;
23058;SDS011;30585;51.502;7.218;2022-08-01T14:49:23;1.35;;;1.15;;
23058;SDS011;30585;51.502;7.218;2022-08-01T14:51:51;1.38;;;1.00;;
23058;SDS011;30585;51.502;7.218;2022-08-01T14:54:20;1.08;;;1.05;;
23058;SDS011;30585;51.502;7.218;2022-08-01T14:56:54;2.05;;;1.40;;
23058;SDS011;30585;51.502;7.218;2022-08-01T14:59:23;1.30;;;1.00;;
23058;SDS011;30585;51.502;7.218;2022-08-01T15:01:50;1.35;;;1.10;;